createdAt,value
2023-03-16T00:02:09.806Z,0.16
2023-03-16T00:04:39.188Z,0.15
2023-03-16T00:07:06.376Z,0.17
2023-03-16T00:09:32.785Z,0.15
2023-03-16T00:11:59.596Z,0.11
2023-03-16T00:14:26.667Z,0.06
2023-03-16T00:16:53.509Z,0.14
2023-03-16T00:19:19.960Z,0.08
2023-03-16T00:21:46.377Z,0.09
2023-03-16T00:24:12.968Z,0.11
2023-03-16T00:26:39.434Z,-0.04
2023-03-16T00:29:05.977Z,0.00
2023-03-16T00:31:33.928Z,-0.07
2023-03-16T00:34:02.798Z,0.04
2023-03-16T00:36:29.282Z,0.09
2023-03-16T00:38:55.892Z,-0.02
2023-03-16T00:41:23.000Z,0.11
2023-03-16T00:43:49.505Z,0.14
2023-03-16T00:46:17.109Z,0.17
2023-03-16T00:48:44.958Z,0.19
2023-03-16T00:51:15.398Z,0.20
2023-03-16T00:53:43.277Z,0.16
2023-03-16T00:56:10.210Z,0.01
2023-03-16T00:58:37.829Z,0.10
2023-03-16T01:01:06.074Z,0.08
2023-03-16T01:03:32.758Z,0.05
2023-03-16T01:06:03.187Z,0.01
2023-03-16T01:08:29.745Z,0.01
2023-03-16T01:10:56.362Z,0.03
2023-03-16T01:13:22.886Z,0.07
2023-03-16T01:15:52.676Z,0.10
2023-03-16T01:18:20.388Z,0.19
2023-03-16T01:20:50.938Z,0.13
2023-03-16T01:23:18.048Z,0.04
2023-03-16T01:25:44.522Z,0.11
2023-03-16T01:28:10.971Z,0.11
2023-03-16T01:30:37.469Z,0.03
2023-03-16T01:33:03.994Z,0.12
2023-03-16T01:35:30.632Z,-0.01
2023-03-16T01:37:56.977Z,-0.03
2023-03-16T01:40:31.947Z,-0.01
2023-03-16T01:43:06.219Z,0.01
2023-03-16T01:46:00.090Z,-0.06
2023-03-16T01:48:27.564Z,0.04
2023-03-16T01:50:55.152Z,0.04
2023-03-16T01:53:22.978Z,-0.01
2023-03-16T01:55:55.349Z,0.00
2023-03-16T01:58:22.454Z,-0.03
2023-03-16T02:00:48.852Z,0.03
2023-03-16T02:03:16.773Z,-0.04
2023-03-16T02:05:44.946Z,-0.03
2023-03-16T02:08:12.509Z,-0.17
2023-03-16T02:10:40.292Z,-0.22
2023-03-16T02:13:06.865Z,-0.10
2023-03-16T02:15:36.078Z,-0.15
2023-03-16T02:18:02.995Z,-0.09
2023-03-16T02:20:48.247Z,-0.05
2023-03-16T02:23:18.798Z,-0.14
2023-03-16T02:26:00.202Z,-0.28
2023-03-16T02:28:35.998Z,-0.25
2023-03-16T02:31:03.251Z,-0.26
2023-03-16T02:33:30.276Z,-0.28
2023-03-16T02:35:56.679Z,-0.23
2023-03-16T02:38:23.228Z,-0.17
2023-03-16T02:41:01.160Z,-0.39
2023-03-16T02:43:36.420Z,-0.37
2023-03-16T02:46:05.866Z,-0.43
2023-03-16T02:48:52.697Z,-0.29
2023-03-16T02:51:19.143Z,-0.39
2023-03-16T02:53:45.634Z,-0.34
2023-03-16T02:56:12.154Z,-0.32
2023-03-16T02:58:38.514Z,-0.32
2023-03-16T03:01:04.986Z,-0.27
2023-03-16T03:03:34.379Z,-0.35
2023-03-16T03:06:01.704Z,-0.29
2023-03-16T03:08:28.099Z,-0.26
2023-03-16T03:10:54.464Z,-0.39
2023-03-16T03:13:20.892Z,-0.43
2023-03-16T03:15:47.324Z,-0.37
2023-03-16T03:18:17.173Z,-0.25
2023-03-16T03:20:43.614Z,-0.34
2023-03-16T03:23:10.046Z,-0.27
2023-03-16T03:25:36.487Z,-0.34
2023-03-16T03:28:05.551Z,-0.34
2023-03-16T03:30:32.596Z,-0.41
2023-03-16T03:32:59.089Z,-0.42
2023-03-16T03:35:25.744Z,-0.35
2023-03-16T03:37:52.237Z,-0.31
2023-03-16T03:40:19.553Z,-0.23
2023-03-16T03:42:55.043Z,-0.31
2023-03-16T03:45:21.468Z,-0.27
2023-03-16T03:47:47.894Z,-0.31
2023-03-16T03:50:14.753Z,-0.25
2023-03-16T03:52:41.258Z,-0.25
2023-03-16T03:55:11.090Z,-0.21
2023-03-16T03:57:37.515Z,-0.14
2023-03-16T04:00:08.128Z,-0.10
2023-03-16T04:02:34.606Z,-0.14
2023-03-16T04:05:01.048Z,-0.21
2023-03-16T04:07:27.453Z,-0.11
2023-03-16T04:09:53.891Z,-0.17
2023-03-16T04:12:20.640Z,-0.20
2023-03-16T04:14:47.194Z,-0.32
2023-03-16T04:17:17.880Z,-0.24
2023-03-16T04:19:44.446Z,-0.31
2023-03-16T04:22:10.987Z,-0.31
2023-03-16T04:24:37.386Z,-0.23
2023-03-16T04:27:03.854Z,-0.31
2023-03-16T04:29:30.455Z,-0.34
2023-03-16T04:31:56.888Z,-0.37
2023-03-16T04:34:26.249Z,-0.45
2023-03-16T04:36:53.072Z,-0.41
2023-03-16T04:39:20.080Z,-0.50
2023-03-16T04:41:46.502Z,-0.62
2023-03-16T04:44:13.382Z,-0.61
2023-03-16T04:46:40.428Z,-0.51
2023-03-16T04:49:12.626Z,-0.61
2023-03-16T04:51:40.822Z,-0.59
2023-03-16T04:54:14.932Z,-0.62
2023-03-16T04:56:41.909Z,-0.61
2023-03-16T04:59:08.393Z,-0.69
2023-03-16T05:01:34.845Z,-0.71
2023-03-16T05:04:02.582Z,-0.91
2023-03-16T05:06:32.152Z,-0.78
2023-03-16T05:08:59.343Z,-0.69
2023-03-16T05:11:25.837Z,-0.80
2023-03-16T05:13:55.180Z,-0.80
2023-03-16T05:16:21.779Z,-0.80
2023-03-16T05:18:48.349Z,-0.74
2023-03-16T05:21:17.388Z,-0.80
2023-03-16T05:23:43.926Z,-0.92
2023-03-16T05:26:10.493Z,-0.94
2023-03-16T05:28:37.121Z,-0.90
2023-03-16T05:31:04.131Z,-0.99
2023-03-16T05:33:33.017Z,-0.84
2023-03-16T05:36:08.349Z,-0.99
2023-03-16T05:38:37.042Z,-0.98
2023-03-16T05:41:06.027Z,-0.95
2023-03-16T05:43:38.594Z,-0.82
2023-03-16T05:46:05.359Z,-0.84
2023-03-16T05:48:32.154Z,-0.77
2023-03-16T05:50:58.727Z,-0.75
2023-03-16T05:53:28.999Z,-0.78
2023-03-16T05:55:58.264Z,-0.97
2023-03-16T05:58:25.040Z,-0.94
2023-03-16T06:00:58.170Z,-0.87
2023-03-16T06:03:28.243Z,-0.70
2023-03-16T06:05:54.978Z,-0.65
2023-03-16T06:08:22.652Z,-0.75
2023-03-16T06:10:49.442Z,-0.78
2023-03-16T06:13:18.586Z,-0.57
2023-03-16T06:15:48.181Z,-0.64
2023-03-16T06:18:15.702Z,-0.74
2023-03-16T06:20:42.428Z,-0.70
2023-03-16T06:23:11.778Z,-0.47
2023-03-16T06:25:41.140Z,-0.48
2023-03-16T06:28:08.112Z,-0.38
2023-03-16T06:30:39.754Z,-0.24
2023-03-16T06:33:11.780Z,-0.37
2023-03-16T06:35:38.470Z,-0.37
2023-03-16T06:38:10.003Z,-0.38
2023-03-16T06:40:36.528Z,-0.14
2023-03-16T06:43:06.601Z,-0.15
2023-03-16T06:45:36.971Z,-0.02
2023-03-16T06:48:03.828Z,0.05
2023-03-16T06:50:32.545Z,0.18
2023-03-16T06:52:59.306Z,0.21
2023-03-16T06:55:25.776Z,0.34
2023-03-16T06:57:52.320Z,0.46
2023-03-16T07:00:18.956Z,0.52
2023-03-16T07:03:00.616Z,0.60
2023-03-16T07:05:27.385Z,0.72
2023-03-16T07:11:10.781Z,0.89
2023-03-16T07:13:44.860Z,1.00
2023-03-16T07:16:39.408Z,0.98
2023-03-16T07:19:09.572Z,1.13
2023-03-16T07:21:40.457Z,1.22
2023-03-16T07:24:10.648Z,1.38
2023-03-16T07:26:40.675Z,1.61
2023-03-16T07:29:07.885Z,1.97
2023-03-16T07:31:34.767Z,2.08
2023-03-16T07:34:02.521Z,1.99
2023-03-16T07:36:29.003Z,2.00
2023-03-16T07:38:55.450Z,2.02
2023-03-16T07:41:21.901Z,2.04
2023-03-16T07:43:48.533Z,2.15
2023-03-16T07:46:15.923Z,2.37
2023-03-16T07:48:43.438Z,2.44
2023-03-16T07:51:10.601Z,2.46
2023-03-16T07:53:37.096Z,2.63
2023-03-16T07:56:03.978Z,2.85
2023-03-16T07:58:30.510Z,2.89
2023-03-16T08:01:01.638Z,3.13
2023-03-16T08:03:29.470Z,3.71
2023-03-16T08:05:56.031Z,3.48
2023-03-16T08:08:22.707Z,3.56
2023-03-16T08:10:49.513Z,3.31
2023-03-16T08:13:16.234Z,3.64
2023-03-16T08:15:45.900Z,3.72
2023-03-16T08:18:12.714Z,3.41
2023-03-16T08:20:39.359Z,3.65
2023-03-16T08:25:46.254Z,3.67
2023-03-16T08:28:12.786Z,4.04
2023-03-16T08:30:44.357Z,4.16
2023-03-16T08:33:10.903Z,4.03
2023-03-16T08:35:37.441Z,4.11
2023-03-16T08:38:03.854Z,4.16
2023-03-16T08:40:30.561Z,4.13
2023-03-16T08:42:57.027Z,3.90
2023-03-16T08:45:24.405Z,4.11
2023-03-16T08:47:51.193Z,4.17
2023-03-16T08:50:17.607Z,4.14
2023-03-16T08:52:44.057Z,4.16
2023-03-16T08:55:11.125Z,4.29
2023-03-16T08:57:39.311Z,4.50
2023-03-16T09:00:17.715Z,4.66
2023-03-16T09:02:44.688Z,4.95
2023-03-16T09:05:12.485Z,5.20
2023-03-16T09:07:39.586Z,5.31
2023-03-16T09:10:06.776Z,5.58
2023-03-16T09:12:36.729Z,5.34
2023-03-16T09:15:03.609Z,5.17
2023-03-16T09:17:30.112Z,5.06
2023-03-16T09:20:08.099Z,5.28
2023-03-16T09:22:38.752Z,5.39
2023-03-16T09:25:06.766Z,5.28
2023-03-16T09:27:33.672Z,5.21
2023-03-16T09:30:00.892Z,5.47
2023-03-16T09:32:28.261Z,5.30
2023-03-16T09:34:54.871Z,5.02
2023-03-16T09:37:21.716Z,5.20
2023-03-16T09:39:48.548Z,5.48
2023-03-16T09:42:20.981Z,5.45
2023-03-16T09:44:53.316Z,5.76
2023-03-16T09:47:24.042Z,5.84
2023-03-16T09:49:51.312Z,6.11
2023-03-16T09:52:39.492Z,5.68
2023-03-16T09:55:12.012Z,6.11
2023-03-16T09:57:42.656Z,6.10
2023-03-16T10:00:21.362Z,6.14
2023-03-16T10:02:59.559Z,6.31
2023-03-16T10:05:27.244Z,5.80
2023-03-16T10:08:09.152Z,6.30
2023-03-16T10:10:55.180Z,6.10
2023-03-16T10:13:24.648Z,6.24
2023-03-16T10:15:52.581Z,6.16
2023-03-16T10:18:22.668Z,6.27
2023-03-16T10:20:53.101Z,6.44
2023-03-16T10:23:24.723Z,6.33
2023-03-16T10:25:52.496Z,6.25
2023-03-16T10:28:22.831Z,6.44
2023-03-16T10:30:50.877Z,6.38
2023-03-16T10:33:18.208Z,6.10
2023-03-16T10:35:46.725Z,6.42
2023-03-16T10:38:27.468Z,6.47
2023-03-16T10:40:54.070Z,6.74
2023-03-16T10:43:20.535Z,7.01
2023-03-16T10:45:47.244Z,7.09
2023-03-16T10:48:15.276Z,6.95
2023-03-16T10:50:48.469Z,7.02
2023-03-16T10:53:17.723Z,7.21
2023-03-16T10:56:13.894Z,7.15
2023-03-16T10:58:42.579Z,7.45
2023-03-16T11:01:29.017Z,7.47
2023-03-16T11:03:57.162Z,7.42
2023-03-16T11:06:30.857Z,7.28
2023-03-16T11:09:08.814Z,7.26
2023-03-16T11:11:35.424Z,7.04
2023-03-16T11:14:05.069Z,7.28
2023-03-16T11:16:39.846Z,7.42
2023-03-16T11:19:15.031Z,7.25
2023-03-16T11:21:50.983Z,7.34
2023-03-16T11:24:32.278Z,7.42
2023-03-16T11:27:00.861Z,7.56
2023-03-16T11:30:06.369Z,7.69
2023-03-16T11:32:35.864Z,7.65
2023-03-16T11:35:08.161Z,7.78
2023-03-16T11:37:35.185Z,7.56
2023-03-16T11:40:14.307Z,7.52
2023-03-16T11:42:59.634Z,7.64
2023-03-16T11:45:35.088Z,7.79
2023-03-16T11:48:12.292Z,7.92
2023-03-16T11:50:41.959Z,8.07
2023-03-16T11:53:27.354Z,8.06
2023-03-16T11:55:53.796Z,8.06
2023-03-16T11:58:28.927Z,8.11
2023-03-16T12:01:02.024Z,8.05
2023-03-16T12:03:28.907Z,8.04
2023-03-16T12:05:58.368Z,8.53
2023-03-16T12:08:34.153Z,8.20
2023-03-16T12:11:07.892Z,8.10
2023-03-16T12:13:37.718Z,8.40
2023-03-16T12:16:21.832Z,8.59
2023-03-16T12:19:08.923Z,8.64
2023-03-16T12:21:39.476Z,8.39
2023-03-16T12:24:11.824Z,8.52
2023-03-16T12:26:42.426Z,8.57
2023-03-16T12:29:28.546Z,8.64
2023-03-16T12:32:02.316Z,8.77
2023-03-16T12:34:48.820Z,8.78
2023-03-16T12:37:36.345Z,8.10
2023-03-16T12:40:33.113Z,7.91
2023-03-16T12:47:18.072Z,8.44
2023-03-16T12:49:44.692Z,8.24
2023-03-16T12:52:12.724Z,8.24
2023-03-16T12:55:07.530Z,8.47
2023-03-16T12:57:38.152Z,8.90
2023-03-16T13:00:21.803Z,8.66
2023-03-16T13:03:33.497Z,8.81
2023-03-16T13:06:06.764Z,8.79
2023-03-16T13:09:04.022Z,8.74
2023-03-16T13:11:45.828Z,8.90
2023-03-16T13:20:52.858Z,9.05
2023-03-16T13:23:39.705Z,9.06
2023-03-16T13:26:27.374Z,8.74
2023-03-16T13:28:55.417Z,8.70
2023-03-16T13:39:10.394Z,8.58
2023-03-16T13:52:38.352Z,8.90
2023-03-16T13:55:12.393Z,8.90
2023-03-16T14:01:55.900Z,8.97
2023-03-16T15:29:02.919Z,8.92
2023-03-16T15:31:29.394Z,8.84
2023-03-16T15:33:55.908Z,8.59
2023-03-16T15:36:22.670Z,8.39
2023-03-16T15:38:50.474Z,8.72
2023-03-16T15:41:17.290Z,8.50
2023-03-16T15:43:45.850Z,8.59
2023-03-16T15:46:12.399Z,8.59
2023-03-16T15:48:39.250Z,8.49
2023-03-16T15:51:14.293Z,8.23
2023-03-16T15:53:43.636Z,8.23
2023-03-16T15:56:12.184Z,8.11
2023-03-16T15:58:40.376Z,8.34
2023-03-16T16:01:09.005Z,8.06
2023-03-16T16:03:38.220Z,7.83
2023-03-16T16:06:11.304Z,7.88
2023-03-16T16:08:38.273Z,7.80
2023-03-16T16:11:15.235Z,7.81
2023-03-16T16:13:45.363Z,7.85
2023-03-16T16:16:24.403Z,7.59
2023-03-16T16:18:53.726Z,7.21
2023-03-16T16:21:23.020Z,7.20
2023-03-16T16:23:51.561Z,7.17
2023-03-16T16:26:27.896Z,7.04
2023-03-16T16:29:03.281Z,6.92
2023-03-16T16:31:30.596Z,6.87
2023-03-16T16:33:59.046Z,6.88
2023-03-16T16:36:25.539Z,6.76
2023-03-16T16:38:57.179Z,6.61
2023-03-16T16:41:26.916Z,6.51
2023-03-16T16:43:53.957Z,6.33
2023-03-16T16:46:25.077Z,6.31
2023-03-16T16:48:53.398Z,6.28
2023-03-16T16:51:24.858Z,6.15
2023-03-16T16:53:54.630Z,6.05
2023-03-16T16:56:25.153Z,6.12
2023-03-16T16:58:51.789Z,6.04
2023-03-16T17:01:33.414Z,5.99
2023-03-16T17:04:00.719Z,5.84
2023-03-16T17:06:28.016Z,6.00
2023-03-16T17:09:06.050Z,5.99
2023-03-16T17:11:32.670Z,5.97
2023-03-16T17:14:02.880Z,5.92
2023-03-16T17:16:39.913Z,5.96
2023-03-16T17:19:17.668Z,5.83
2023-03-16T17:21:46.559Z,5.75
2023-03-16T17:24:15.675Z,5.64
2023-03-16T17:26:47.835Z,5.39
2023-03-16T17:29:23.074Z,5.33
2023-03-16T17:31:50.078Z,5.39
2023-03-16T17:34:29.665Z,5.45
2023-03-16T17:36:56.717Z,5.27
2023-03-16T17:39:33.462Z,5.34
2023-03-16T17:42:03.527Z,5.21
2023-03-16T17:44:51.576Z,5.12
2023-03-16T17:47:18.092Z,5.17
2023-03-16T17:49:48.777Z,5.14
2023-03-16T17:52:18.347Z,5.06
2023-03-16T17:54:46.416Z,4.92
2023-03-16T17:57:18.604Z,5.16
2023-03-16T17:59:46.572Z,5.14
2023-03-16T18:02:50.159Z,5.14
2023-03-16T18:05:23.134Z,5.23
2023-03-16T18:07:49.986Z,5.20
2023-03-16T18:10:32.628Z,5.25
2023-03-16T18:14:11.961Z,5.24
2023-03-16T18:16:25.434Z,5.34
2023-03-16T18:18:53.977Z,5.44
2023-03-16T18:21:25.978Z,5.42
2023-03-16T18:23:53.884Z,5.33
2023-03-16T18:26:23.981Z,5.45
2023-03-16T18:28:56.384Z,5.53
2023-03-16T18:31:31.101Z,5.49
2023-03-16T18:33:59.737Z,5.44
2023-03-16T18:36:32.275Z,5.47
2023-03-16T18:39:06.559Z,5.46
2023-03-16T18:41:59.400Z,5.54
2023-03-16T18:44:36.683Z,5.60
2023-03-16T18:47:03.744Z,5.48
2023-03-16T18:49:32.780Z,5.48
2023-03-16T18:55:16.789Z,5.53
2023-03-16T18:57:49.157Z,5.55
2023-03-16T19:00:28.063Z,5.58
2023-03-16T19:03:03.238Z,5.68
2023-03-16T19:05:34.956Z,5.70
2023-03-16T19:08:04.436Z,5.70
2023-03-16T19:10:54.962Z,5.75
2023-03-16T19:13:23.985Z,5.74
2023-03-16T19:15:56.512Z,5.73
2023-03-16T19:18:35.354Z,5.62
2023-03-16T19:21:12.666Z,5.56
2023-03-16T19:23:44.120Z,5.37
2023-03-16T19:26:27.297Z,5.32
2023-03-16T19:29:13.389Z,5.36
2023-03-16T19:31:46.016Z,5.26
2023-03-16T19:34:22.328Z,5.30
2023-03-16T19:37:00.199Z,5.24
2023-03-16T19:39:29.271Z,5.24
2023-03-16T19:42:04.912Z,5.23
2023-03-16T19:44:54.742Z,5.36
2023-03-16T19:47:27.731Z,5.45
2023-03-16T19:50:07.799Z,5.51
2023-03-16T19:52:38.557Z,5.56
2023-03-16T19:55:11.124Z,5.57
2023-03-16T19:58:08.946Z,5.61
2023-03-16T20:00:36.897Z,5.46
2023-03-16T20:03:11.454Z,5.54
2023-03-16T20:05:42.350Z,5.50
2023-03-16T20:08:36.233Z,5.73
2023-03-16T20:11:07.894Z,5.59
2023-03-16T20:13:46.253Z,5.60
2023-03-16T20:16:25.040Z,5.53
2023-03-16T20:19:16.729Z,5.81
2023-03-16T20:21:46.117Z,5.55
2023-03-16T20:24:36.432Z,5.64
2023-03-16T20:27:07.595Z,5.58
2023-03-16T20:29:52.260Z,5.73
2023-03-16T20:32:22.780Z,5.58
2023-03-16T20:38:18.256Z,5.53
2023-03-16T20:40:51.002Z,5.71
2023-03-16T20:43:18.456Z,5.49
2023-03-16T20:45:53.528Z,5.47
2023-03-16T20:48:38.235Z,5.57
2023-03-16T20:51:07.181Z,5.54
2023-03-16T20:53:40.558Z,5.56
2023-03-16T20:56:13.701Z,5.66
2023-03-16T20:58:51.970Z,5.46
2023-03-16T21:01:21.322Z,5.42
2023-03-16T21:03:56.154Z,5.55
2023-03-16T21:09:10.672Z,5.39
2023-03-16T21:11:38.261Z,5.33
2023-03-16T21:14:06.220Z,5.27
2023-03-16T21:16:35.338Z,5.30
2023-03-16T21:19:02.037Z,5.43
2023-03-16T21:24:37.172Z,5.37
2023-03-16T21:27:13.612Z,5.29
2023-03-16T21:29:41.477Z,5.38
2023-03-16T21:32:21.216Z,5.36
2023-03-16T21:35:08.239Z,5.08
2023-03-16T21:41:01.356Z,4.87
2023-03-16T21:43:57.276Z,5.07
2023-03-16T21:46:38.803Z,4.90
2023-03-16T21:49:10.181Z,4.99
2023-03-16T21:52:01.184Z,4.86
2023-03-16T21:54:27.883Z,4.79
2023-03-16T21:57:01.635Z,4.78
2023-03-16T21:59:31.779Z,4.83
2023-03-16T22:02:02.527Z,4.89
2023-03-16T22:04:46.356Z,4.96
2023-03-16T22:07:13.334Z,4.91
2023-03-16T22:09:44.174Z,4.92
2023-03-16T22:12:12.900Z,5.01
2023-03-16T22:14:39.629Z,4.89
2023-03-16T22:17:21.477Z,4.90
2023-03-16T22:19:50.399Z,4.92
2023-03-16T22:22:17.716Z,5.01
2023-03-16T22:24:46.572Z,4.97
2023-03-16T22:27:22.059Z,4.96
2023-03-16T22:29:50.048Z,4.95
2023-03-16T22:32:18.667Z,4.83
2023-03-16T22:34:56.385Z,4.78
2023-03-16T22:37:25.877Z,4.88
2023-03-16T22:39:53.084Z,4.73
2023-03-16T22:42:19.669Z,4.82
2023-03-16T22:44:46.187Z,4.75
2023-03-16T22:47:26.299Z,4.69
2023-03-16T22:50:04.369Z,4.67
2023-03-16T22:52:35.188Z,4.59
2023-03-16T22:55:03.234Z,4.66
2023-03-16T22:57:33.617Z,4.67
2023-03-16T23:00:01.429Z,4.69
2023-03-16T23:02:29.146Z,4.69
2023-03-16T23:04:56.225Z,4.78
2023-03-16T23:07:22.768Z,4.66
2023-03-16T23:09:58.147Z,4.68
2023-03-16T23:12:32.132Z,4.61
2023-03-16T23:15:12.940Z,4.72
2023-03-16T23:17:39.666Z,4.72
2023-03-16T23:20:21.645Z,4.68
2023-03-16T23:23:04.043Z,4.43
2023-03-16T23:25:30.836Z,4.50
2023-03-16T23:28:00.680Z,4.49
2023-03-16T23:30:27.183Z,4.34
2023-03-16T23:32:56.906Z,4.37
2023-03-16T23:35:31.102Z,4.42
2023-03-16T23:37:57.722Z,4.48
2023-03-16T23:40:25.906Z,4.28
2023-03-16T23:42:53.498Z,4.28
2023-03-16T23:45:26.266Z,4.27
2023-03-16T23:47:54.569Z,4.40
2023-03-16T23:50:23.552Z,4.25
2023-03-16T23:52:52.152Z,4.20
2023-03-16T23:55:20.094Z,4.15
2023-03-16T23:57:46.572Z,4.24
